sensor_id;sensor_type;location;lat;lon;timestamp;pressure;altitude;pressure_sealevel;temperature;humidity
23172;BME280;11754;42.664;23.594;2023-04-01T00:00:55;94555.16;;;9.87;60.06
23172;BME280;11754;42.664;23.594;2023-04-01T00:03:22;94560.97;;;9.98;59.87
23172;BME280;11754;42.664;23.594;2023-04-01T00:05:48;94560.59;;;10.01;58.64
23172;BME280;11754;42.664;23.594;2023-04-01T00:08:15;94557.81;;;9.87;59.12
23172;BME280;11754;42.664;23.594;2023-04-01T00:10:40;94560.66;;;9.71;60.03
23172;BME280;11754;42.664;23.594;2023-04-01T00:13:06;94552.88;;;9.63;60.33
23172;BME280;11754;42.664;23.594;2023-04-01T00:15:32;94554.56;;;9.41;61.53
23172;BME280;11754;42.664;23.594;2023-04-01T00:17:58;94552.03;;;9.33;61.69
23172;BME280;11754;42.664;23.594;2023-04-01T00:20:24;94566.00;;;9.33;62.08
23172;BME280;11754;42.664;23.594;2023-04-01T00:22:50;94565.38;;;9.31;62.08
23172;BME280;11754;42.664;23.594;2023-04-01T00:25:15;94568.28;;;9.36;61.81
23172;BME280;11754;42.664;23.594;2023-04-01T00:27:41;94575.56;;;9.34;61.86
23172;BME280;11754;42.664;23.594;2023-04-01T00:30:08;94567.00;;;9.32;62.11
23172;BME280;11754;42.664;23.594;2023-04-01T00:32:34;94563.56;;;9.32;61.86
23172;BME280;11754;42.664;23.594;2023-04-01T00:34:59;94552.66;;;9.20;62.63
23172;BME280;11754;42.664;23.594;2023-04-01T00:37:26;94555.00;;;9.15;62.69
23172;BME280;11754;42.664;23.594;2023-04-01T00:39:55;94544.03;;;9.11;63.19
23172;BME280;11754;42.664;23.594;2023-04-01T00:42:20;94548.66;;;9.09;63.15
23172;BME280;11754;42.664;23.594;2023-04-01T00:44:52;94544.69;;;9.13;62.34
23172;BME280;11754;42.664;23.594;2023-04-01T00:47:18;94542.03;;;9.13;62.72
23172;BME280;11754;42.664;23.594;2023-04-01T00:49:46;94541.41;;;9.26;62.76
23172;BME280;11754;42.664;23.594;2023-04-01T00:52:19;94536.69;;;9.36;61.93
23172;BME280;11754;42.664;23.594;2023-04-01T00:54:50;94528.53;;;9.31;62.34
23172;BME280;11754;42.664;23.594;2023-04-01T00:57:28;94511.19;;;9.37;61.58
23172;BME280;11754;42.664;23.594;2023-04-01T00:59:56;94518.38;;;9.28;61.39
23172;BME280;11754;42.664;23.594;2023-04-01T01:02:21;94520.00;;;9.29;61.53
23172;BME280;11754;42.664;23.594;2023-04-01T01:04:47;94513.47;;;9.25;61.53
23172;BME280;11754;42.664;23.594;2023-04-01T01:07:37;94524.34;;;9.22;61.72
23172;BME280;11754;42.664;23.594;2023-04-01T01:10:26;94526.72;;;9.17;61.78
23172;BME280;11754;42.664;23.594;2023-04-01T01:15:26;94519.06;;;8.93;63.21
23172;BME280;11754;42.664;23.594;2023-04-01T01:18:19;94509.63;;;8.83;63.50
23172;BME280;11754;42.664;23.594;2023-04-01T01:26:49;94509.09;;;8.88;63.69
23172;BME280;11754;42.664;23.594;2023-04-01T01:29:50;94485.31;;;8.81;64.30
23172;BME280;11754;42.664;23.594;2023-04-01T01:38:02;94481.91;;;8.96;63.40
23172;BME280;11754;42.664;23.594;2023-04-01T01:40:31;94471.72;;;8.93;63.33
23172;BME280;11754;42.664;23.594;2023-04-01T01:43:02;94473.72;;;8.90;63.42
23172;BME280;11754;42.664;23.594;2023-04-01T01:45:30;94476.28;;;8.99;62.87
23172;BME280;11754;42.664;23.594;2023-04-01T01:47:57;94462.78;;;9.02;62.85
23172;BME280;11754;42.664;23.594;2023-04-01T01:50:25;94458.50;;;9.01;62.92
23172;BME280;11754;42.664;23.594;2023-04-01T01:52:51;;;;9.09;
23172;BME280;11754;42.664;23.594;2023-04-01T01:55:36;94455.16;;;9.07;63.12
23172;BME280;11754;42.664;23.594;2023-04-01T01:58:22;94458.84;;;8.98;63.15
23172;BME280;11754;42.664;23.594;2023-04-01T02:00:56;94449.88;;;9.07;63.38
23172;BME280;11754;42.664;23.594;2023-04-01T02:03:24;94452.25;;;9.02;63.44
23172;BME280;11754;42.664;23.594;2023-04-01T02:05:52;94436.19;;;8.97;63.44
23172;BME280;11754;42.664;23.594;2023-04-01T02:08:22;94431.28;;;8.94;63.75
23172;BME280;11754;42.664;23.594;2023-04-01T02:10:59;94435.19;;;8.98;63.29
23172;BME280;11754;42.664;23.594;2023-04-01T02:13:38;94434.47;;;8.89;63.94
23172;BME280;11754;42.664;23.594;2023-04-01T02:16:20;94439.28;;;8.85;63.78
23172;BME280;11754;42.664;23.594;2023-04-01T02:18:48;94434.00;;;8.71;64.40
23172;BME280;11754;42.664;23.594;2023-04-01T02:21:15;94432.53;;;8.68;64.99
23172;BME280;11754;42.664;23.594;2023-04-01T02:23:44;94423.22;;;8.65;65.00
23172;BME280;11754;42.664;23.594;2023-04-01T02:26:11;94422.03;;;8.68;64.94
23172;BME280;11754;42.664;23.594;2023-04-01T02:28:38;94421.22;;;8.68;65.30
23172;BME280;11754;42.664;23.594;2023-04-01T02:31:06;94413.34;;;8.68;65.47
23172;BME280;11754;42.664;23.594;2023-04-01T02:33:33;94412.31;;;8.69;65.34
23172;BME280;11754;42.664;23.594;2023-04-01T02:35:59;94410.25;;;8.79;65.22
23172;BME280;11754;42.664;23.594;2023-04-01T02:38:24;94388.66;;;8.83;65.05
23172;BME280;11754;42.664;23.594;2023-04-01T02:40:56;94412.53;;;8.97;65.10
23172;BME280;11754;42.664;23.594;2023-04-01T02:43:42;94405.63;;;9.10;64.08
23172;BME280;11754;42.664;23.594;2023-04-01T02:46:07;94404.53;;;9.20;63.55
23172;BME280;11754;42.664;23.594;2023-04-01T02:48:33;94404.59;;;9.26;63.73
23172;BME280;11754;42.664;23.594;2023-04-01T02:50:58;94407.50;;;9.31;63.54
23172;BME280;11754;42.664;23.594;2023-04-01T02:53:24;94399.69;;;9.38;63.42
23172;BME280;11754;42.664;23.594;2023-04-01T02:55:50;94406.91;;;9.51;63.18
23172;BME280;11754;42.664;23.594;2023-04-01T02:58:17;94409.81;;;9.56;63.05
23172;BME280;11754;42.664;23.594;2023-04-01T03:00:42;94381.97;;;9.47;62.83
23172;BME280;11754;42.664;23.594;2023-04-01T03:03:08;94417.47;;;9.72;62.75
23172;BME280;11754;42.664;23.594;2023-04-01T03:05:33;94429.16;;;9.84;61.72
23172;BME280;11754;42.664;23.594;2023-04-01T03:07:59;94423.94;;;9.91;61.72
23172;BME280;11754;42.664;23.594;2023-04-01T03:10:24;94423.63;;;10.01;61.42
23172;BME280;11754;42.664;23.594;2023-04-01T03:12:50;94432.34;;;10.01;62.01
23172;BME280;11754;42.664;23.594;2023-04-01T03:15:15;94422.69;;;10.08;61.77
23172;BME280;11754;42.664;23.594;2023-04-01T03:17:42;94421.72;;;10.16;61.51
23172;BME280;11754;42.664;23.594;2023-04-01T03:20:09;94413.06;;;10.22;61.23
23172;BME280;11754;42.664;23.594;2023-04-01T03:22:36;94426.84;;;10.39;60.70
23172;BME280;11754;42.664;23.594;2023-04-01T03:25:02;94437.44;;;10.46;59.99
23172;BME280;11754;42.664;23.594;2023-04-01T03:27:28;94433.16;;;10.45;61.39
23172;BME280;11754;42.664;23.594;2023-04-01T03:29:53;94427.22;;;10.36;61.87
23172;BME280;11754;42.664;23.594;2023-04-01T03:32:19;94439.94;;;10.11;62.58
23172;BME280;11754;42.664;23.594;2023-04-01T03:34:44;94438.03;;;10.05;62.63
23172;BME280;11754;42.664;23.594;2023-04-01T03:37:10;94430.50;;;9.80;62.51
23172;BME280;11754;42.664;23.594;2023-04-01T03:39:35;94446.06;;;9.75;63.43
23172;BME280;11754;42.664;23.594;2023-04-01T03:42:01;94449.19;;;9.64;63.86
23172;BME280;11754;42.664;23.594;2023-04-01T03:44:30;94452.78;;;9.42;64.84
23172;BME280;11754;42.664;23.594;2023-04-01T03:46:56;94464.59;;;9.16;65.91
23172;BME280;11754;42.664;23.594;2023-04-01T03:49:21;94461.06;;;9.09;66.11
23172;BME280;11754;42.664;23.594;2023-04-01T03:51:46;94445.88;;;9.26;65.42
23172;BME280;11754;42.664;23.594;2023-04-01T03:54:12;94453.84;;;9.32;65.26
23172;BME280;11754;42.664;23.594;2023-04-01T03:56:37;94452.13;;;9.39;64.82
23172;BME280;11754;42.664;23.594;2023-04-01T03:59:05;94456.75;;;9.37;65.29
23172;BME280;11754;42.664;23.594;2023-04-01T04:01:31;94438.78;;;9.41;65.28
23172;BME280;11754;42.664;23.594;2023-04-01T04:03:57;94429.97;;;9.49;65.03
23172;BME280;11754;42.664;23.594;2023-04-01T04:06:23;94439.13;;;9.53;64.79
23172;BME280;11754;42.664;23.594;2023-04-01T04:08:49;94440.34;;;9.35;65.00
23172;BME280;11754;42.664;23.594;2023-04-01T04:11:15;94438.97;;;9.39;64.88
23172;BME280;11754;42.664;23.594;2023-04-01T04:13:42;94419.81;;;9.46;64.90
23172;BME280;11754;42.664;23.594;2023-04-01T04:16:07;94401.34;;;9.60;64.75
23172;BME280;11754;42.664;23.594;2023-04-01T04:18:33;94395.03;;;9.76;64.12
23172;BME280;11754;42.664;23.594;2023-04-01T04:20:59;94371.53;;;9.75;64.33
23172;BME280;11754;42.664;23.594;2023-04-01T04:23:24;94373.72;;;9.71;63.96
23172;BME280;11754;42.664;23.594;2023-04-01T04:25:57;94362.03;;;9.59;64.49
23172;BME280;11754;42.664;23.594;2023-04-01T04:28:24;94354.47;;;9.71;63.69
23172;BME280;11754;42.664;23.594;2023-04-01T04:30:50;94343.88;;;9.64;65.02
23172;BME280;11754;42.664;23.594;2023-04-01T04:33:16;94342.94;;;9.72;64.99
23172;BME280;11754;42.664;23.594;2023-04-01T04:35:41;94352.28;;;9.74;65.42
23172;BME280;11754;42.664;23.594;2023-04-01T04:38:07;94325.94;;;9.74;65.11
23172;BME280;11754;42.664;23.594;2023-04-01T04:40:32;94327.34;;;9.70;65.75
23172;BME280;11754;42.664;23.594;2023-04-01T04:42:57;94340.94;;;9.74;65.39
23172;BME280;11754;42.664;23.594;2023-04-01T04:45:23;94329.09;;;9.84;65.43
23172;BME280;11754;42.664;23.594;2023-04-01T04:47:48;94320.09;;;9.79;65.91
23172;BME280;11754;42.664;23.594;2023-04-01T04:50:14;94313.31;;;9.70;66.54
23172;BME280;11754;42.664;23.594;2023-04-01T04:52:39;94320.47;;;9.76;65.93
23172;BME280;11754;42.664;23.594;2023-04-01T04:55:05;94295.78;;;9.77;66.17
23172;BME280;11754;42.664;23.594;2023-04-01T04:57:31;94299.34;;;9.69;66.73
23172;BME280;11754;42.664;23.594;2023-04-01T04:59:56;94290.41;;;9.63;67.07
23172;BME280;11754;42.664;23.594;2023-04-01T05:02:21;94291.88;;;9.73;66.29
23172;BME280;11754;42.664;23.594;2023-04-01T05:04:47;94294.97;;;9.76;66.53
23172;BME280;11754;42.664;23.594;2023-04-01T05:07:12;94301.63;;;9.72;66.95
23172;BME280;11754;42.664;23.594;2023-04-01T05:09:38;94294.44;;;9.87;66.45
23172;BME280;11754;42.664;23.594;2023-04-01T05:12:03;94289.44;;;9.93;66.26
23172;BME280;11754;42.664;23.594;2023-04-01T05:14:29;94294.94;;;9.98;66.00
23172;BME280;11754;42.664;23.594;2023-04-01T05:16:54;94292.94;;;10.00;66.13
23172;BME280;11754;42.664;23.594;2023-04-01T05:19:20;94280.94;;;9.97;66.43
23172;BME280;11754;42.664;23.594;2023-04-01T05:21:45;94272.19;;;9.90;66.30
23172;BME280;11754;42.664;23.594;2023-04-01T05:24:11;94260.19;;;9.81;66.91
23172;BME280;11754;42.664;23.594;2023-04-01T05:26:36;94260.56;;;9.78;65.75
23172;BME280;11754;42.664;23.594;2023-04-01T05:29:03;94254.50;;;9.84;65.38
23172;BME280;11754;42.664;23.594;2023-04-01T05:31:29;94248.00;;;9.80;65.69
23172;BME280;11754;42.664;23.594;2023-04-01T05:33:55;94256.09;;;9.78;65.43
23172;BME280;11754;42.664;23.594;2023-04-01T05:36:21;94242.06;;;9.71;65.53
23172;BME280;11754;42.664;23.594;2023-04-01T05:38:46;94239.44;;;9.71;65.28
23172;BME280;11754;42.664;23.594;2023-04-01T05:41:13;94231.69;;;9.63;65.00
23172;BME280;11754;42.664;23.594;2023-04-01T05:43:39;94243.53;;;9.74;65.48
23172;BME280;11754;42.664;23.594;2023-04-01T05:46:05;94240.31;;;9.78;65.22
23172;BME280;11754;42.664;23.594;2023-04-01T05:48:32;94240.38;;;9.92;65.10
23172;BME280;11754;42.664;23.594;2023-04-01T05:50:59;94250.25;;;10.11;64.55
23172;BME280;11754;42.664;23.594;2023-04-01T05:53:24;94245.94;;;10.31;63.62
23172;BME280;11754;42.664;23.594;2023-04-01T05:55:50;94248.69;;;10.51;63.22
23172;BME280;11754;42.664;23.594;2023-04-01T05:58:15;94253.03;;;10.72;62.45
23172;BME280;11754;42.664;23.594;2023-04-01T06:00:40;94258.41;;;10.99;62.60
23172;BME280;11754;42.664;23.594;2023-04-01T06:03:06;94247.50;;;11.15;60.78
23172;BME280;11754;42.664;23.594;2023-04-01T06:05:39;94240.59;;;11.27;61.42
23172;BME280;11754;42.664;23.594;2023-04-01T06:08:18;94242.66;;;11.39;61.83
23172;BME280;11754;42.664;23.594;2023-04-01T06:25:15;94228.03;;;13.89;54.05
23172;BME280;11754;42.664;23.594;2023-04-01T06:30:47;94236.34;;;14.61;51.42
23172;BME280;11754;42.664;23.594;2023-04-01T06:42:08;94221.28;;;14.55;49.67
23172;BME280;11754;42.664;23.594;2023-04-01T06:45:10;94213.84;;;14.63;49.16
23172;BME280;11754;42.664;23.594;2023-04-01T06:56:21;94198.72;;;14.64;48.43
23172;BME280;11754;42.664;23.594;2023-04-01T06:59:15;94200.44;;;14.58;47.93
23172;BME280;11754;42.664;23.594;2023-04-01T07:01:53;94196.00;;;14.52;47.95
23172;BME280;11754;42.664;23.594;2023-04-01T07:04:27;94207.66;;;14.70;48.07
23172;BME280;11754;42.664;23.594;2023-04-01T07:07:00;94209.84;;;14.73;47.90
23172;BME280;11754;42.664;23.594;2023-04-01T07:09:50;94197.47;;;14.66;47.63
23172;BME280;11754;42.664;23.594;2023-04-01T07:15:04;94179.78;;;14.79;48.03
23172;BME280;11754;42.664;23.594;2023-04-01T07:17:36;94175.72;;;14.76;48.31
23172;BME280;11754;42.664;23.594;2023-04-01T07:22:41;94186.63;;;14.86;49.03
23172;BME280;11754;42.664;23.594;2023-04-01T07:25:34;94175.81;;;15.00;49.36
23172;BME280;11754;42.664;23.594;2023-04-01T07:28:03;94167.13;;;15.23;49.81
23172;BME280;11754;42.664;23.594;2023-04-01T07:30:46;94163.44;;;15.35;47.96
23172;BME280;11754;42.664;23.594;2023-04-01T07:52:28;94145.72;;;15.59;45.26
23172;BME280;11754;42.664;23.594;2023-04-01T07:58:20;94156.34;;;15.18;46.23
23172;BME280;11754;42.664;23.594;2023-04-01T08:01:00;94163.75;;;15.16;45.03
23172;BME280;11754;42.664;23.594;2023-04-01T08:17:00;94141.59;;;15.22;46.10
23172;BME280;11754;42.664;23.594;2023-04-01T08:19:59;94146.19;;;15.14;46.45
23172;BME280;11754;42.664;23.594;2023-04-01T08:22:53;94142.78;;;15.26;46.96
23172;BME280;11754;42.664;23.594;2023-04-01T08:25:37;94129.16;;;15.34;46.64
23172;BME280;11754;42.664;23.594;2023-04-01T08:30:52;94124.34;;;15.54;45.84
23172;BME280;11754;42.664;23.594;2023-04-01T08:33:27;94111.53;;;15.63;45.20
23172;BME280;11754;42.664;23.594;2023-04-01T08:36:02;94096.53;;;15.69;45.04
23172;BME280;11754;42.664;23.594;2023-04-01T08:38:39;94089.47;;;15.86;45.75
23172;BME280;11754;42.664;23.594;2023-04-01T08:41:20;94079.97;;;16.14;43.64
23172;BME280;11754;42.664;23.594;2023-04-01T08:57:50;94022.25;;;17.17;43.50
23172;BME280;11754;42.664;23.594;2023-04-01T09:03:35;94014.03;;;18.84;41.12
23172;BME280;11754;42.664;23.594;2023-04-01T09:09:21;94016.31;;;19.72;38.27
23172;BME280;11754;42.664;23.594;2023-04-01T09:20:19;94001.53;;;21.87;32.56
23172;BME280;11754;42.664;23.594;2023-04-01T09:44:58;93974.56;;;23.80;28.14
23172;BME280;11754;42.664;23.594;2023-04-01T09:48:19;93977.00;;;23.81;28.16
23172;BME280;11754;42.664;23.594;2023-04-01T09:50:39;93972.91;;;23.84;27.61
23172;BME280;11754;42.664;23.594;2023-04-01T10:16:08;93898.84;;;36.17;15.98
23172;BME280;11754;42.664;23.594;2023-04-01T10:40:56;93882.94;;;25.22;25.47
23172;BME280;11754;42.664;23.594;2023-04-01T10:49:10;93877.34;;;23.57;27.93
23172;BME280;11754;42.664;23.594;2023-04-01T10:55:14;93860.22;;;22.95;28.51
23172;BME280;11754;42.664;23.594;2023-04-01T10:58:01;93857.66;;;22.74;28.90
23172;BME280;11754;42.664;23.594;2023-04-01T11:00:46;93852.53;;;22.78;28.23
23172;BME280;11754;42.664;23.594;2023-04-01T11:03:26;93856.22;;;22.92;29.31
23172;BME280;11754;42.664;23.594;2023-04-01T11:20:33;93843.88;;;21.27;29.99
23172;BME280;11754;42.664;23.594;2023-04-01T11:47:56;93850.50;;;19.19;33.14
23172;BME280;11754;42.664;23.594;2023-04-01T11:56:28;93903.25;;;18.96;33.29
23172;BME280;11754;42.664;23.594;2023-04-01T12:05:04;94028.75;;;17.76;37.70
23172;BME280;11754;42.664;23.594;2023-04-01T12:10:44;94077.88;;;16.16;51.79
23172;BME280;11754;42.664;23.594;2023-04-01T12:13:30;94107.75;;;15.71;55.43
23172;BME280;11754;42.664;23.594;2023-04-01T12:18:50;94160.25;;;14.18;64.61
23172;BME280;11754;42.664;23.594;2023-04-01T12:21:37;94145.31;;;13.80;69.06
23172;BME280;11754;42.664;23.594;2023-04-01T12:27:06;94145.31;;;13.80;69.76
23172;BME280;11754;42.664;23.594;2023-04-01T12:32:40;94165.00;;;14.09;69.76
23172;BME280;11754;42.664;23.594;2023-04-01T12:38:14;94143.34;;;14.49;68.12
23172;BME280;11754;42.664;23.594;2023-04-01T12:40:56;94147.66;;;14.69;67.65
23172;BME280;11754;42.664;23.594;2023-04-01T12:52:04;94150.34;;;15.64;64.56
23172;BME280;11754;42.664;23.594;2023-04-01T13:09:11;94133.97;;;14.83;64.31
23172;BME280;11754;42.664;23.594;2023-04-01T13:19:54;94122.97;;;14.68;63.42
23172;BME280;11754;42.664;23.594;2023-04-01T13:25:29;94117.44;;;14.51;61.36
23172;BME280;11754;42.664;23.594;2023-04-01T13:28:23;94108.75;;;14.62;62.67
23172;BME280;11754;42.664;23.594;2023-04-01T13:31:29;94104.03;;;14.64;62.69
23172;BME280;11754;42.664;23.594;2023-04-01T13:42:23;94045.47;;;17.04;59.98
23172;BME280;11754;42.664;23.594;2023-04-01T13:47:49;94009.31;;;29.83;32.00
23172;BME280;11754;42.664;23.594;2023-04-01T13:50:36;93994.34;;;34.32;23.00
23172;BME280;11754;42.664;23.594;2023-04-01T13:56:08;93970.31;;;39.86;17.97
23172;BME280;11754;42.664;23.594;2023-04-01T14:10:34;93943.88;;;41.50;15.11
23172;BME280;11754;42.664;23.594;2023-04-01T14:16:03;93931.41;;;42.01;15.12
23172;BME280;11754;42.664;23.594;2023-04-01T14:18:53;93933.03;;;39.34;16.75
23172;BME280;11754;42.664;23.594;2023-04-01T14:24:32;93941.97;;;36.17;19.63
23172;BME280;11754;42.664;23.594;2023-04-01T14:32:34;93917.56;;;34.76;19.97
23172;BME280;11754;42.664;23.594;2023-04-01T14:35:15;93914.06;;;33.80;21.04
23172;BME280;11754;42.664;23.594;2023-04-01T14:49:30;93920.13;;;33.58;21.04
23172;BME280;11754;42.664;23.594;2023-04-01T14:52:04;93915.84;;;31.81;22.40
23172;BME280;11754;42.664;23.594;2023-04-01T14:54:36;93923.97;;;29.67;25.14
23172;BME280;11754;42.664;23.594;2023-04-01T14:57:15;93913.81;;;28.11;27.25
23172;BME280;11754;42.664;23.594;2023-04-01T15:00:15;93903.25;;;25.94;30.94
23172;BME280;11754;42.664;23.594;2023-04-01T15:05:35;93921.63;;;24.42;34.37
23172;BME280;11754;42.664;23.594;2023-04-01T15:16:50;93922.78;;;30.32;26.24
23172;BME280;11754;42.664;23.594;2023-04-01T15:19:43;93914.22;;;30.13;26.66
23172;BME280;11754;42.664;23.594;2023-04-01T15:30:28;93930.94;;;23.24;36.87
23172;BME280;11754;42.664;23.594;2023-04-01T15:38:39;93921.50;;;20.00;44.55
23172;BME280;11754;42.664;23.594;2023-04-01T15:41:15;93922.25;;;19.42;46.72
23172;BME280;11754;42.664;23.594;2023-04-01T15:43:48;93935.31;;;18.96;48.05
23172;BME280;11754;42.664;23.594;2023-04-01T15:49:12;93933.44;;;18.38;50.26
23172;BME280;11754;42.664;23.594;2023-04-01T15:55:00;93953.13;;;17.83;52.23
23172;BME280;11754;42.664;23.594;2023-04-01T16:13:28;94193.91;;;14.36;57.25
23172;BME280;11754;42.664;23.594;2023-04-01T16:16:17;94186.97;;;13.16;61.96
23172;BME280;11754;42.664;23.594;2023-04-01T16:24:28;94180.88;;;12.19;64.55
23172;BME280;11754;42.664;23.594;2023-04-01T16:27:13;94189.44;;;12.08;65.35
23172;BME280;11754;42.664;23.594;2023-04-01T16:35:59;94226.44;;;11.55;68.58
23172;BME280;11754;42.664;23.594;2023-04-01T16:38:50;94226.00;;;11.45;69.15
23172;BME280;11754;42.664;23.594;2023-04-01T16:43:48;94225.50;;;10.95;71.55
23172;BME280;11754;42.664;23.594;2023-04-01T16:51:53;94250.97;;;10.26;76.33
23172;BME280;11754;42.664;23.594;2023-04-01T17:02:18;94241.00;;;9.66;77.62
23172;BME280;11754;42.664;23.594;2023-04-01T17:04:52;94222.22;;;9.47;78.21
23172;BME280;11754;42.664;23.594;2023-04-01T17:07:47;94227.69;;;9.46;76.76
23172;BME280;11754;42.664;23.594;2023-04-01T17:21:38;94249.13;;;9.21;75.63
23172;BME280;11754;42.664;23.594;2023-04-01T17:24:35;94288.34;;;9.16;75.70
23172;BME280;11754;42.664;23.594;2023-04-01T17:35:35;94306.28;;;8.61;77.96
23172;BME280;11754;42.664;23.594;2023-04-01T17:38:26;94313.19;;;8.62;77.73
23172;BME280;11754;42.664;23.594;2023-04-01T17:48:50;94330.75;;;8.47;77.54
23172;BME280;11754;42.664;23.594;2023-04-01T17:51:40;94341.09;;;8.49;77.33
23172;BME280;11754;42.664;23.594;2023-04-01T17:56:59;94341.72;;;8.51;76.74
23172;BME280;11754;42.664;23.594;2023-04-01T17:59:39;94337.38;;;8.58;76.33
23172;BME280;11754;42.664;23.594;2023-04-01T18:07:45;94328.06;;;8.40;76.89
23172;BME280;11754;42.664;23.594;2023-04-01T18:10:23;94338.34;;;8.27;77.10
23172;BME280;11754;42.664;23.594;2023-04-01T18:24:02;94347.91;;;8.05;76.79
23172;BME280;11754;42.664;23.594;2023-04-01T18:26:37;94340.84;;;8.06;77.35
23172;BME280;11754;42.664;23.594;2023-04-01T18:32:19;94348.16;;;7.95;77.66
23172;BME280;11754;42.664;23.594;2023-04-01T18:35:00;94340.69;;;7.84;77.62
23172;BME280;11754;42.664;23.594;2023-04-01T18:40:37;94375.34;;;7.80;78.52
23172;BME280;11754;42.664;23.594;2023-04-01T18:43:12;94368.09;;;7.82;78.64
23172;BME280;11754;42.664;23.594;2023-04-01T18:46:00;94388.94;;;7.83;78.03
23172;BME280;11754;42.664;23.594;2023-04-01T18:51:17;94384.38;;;7.77;77.71
23172;BME280;11754;42.664;23.594;2023-04-01T18:53:58;94385.13;;;7.86;77.83
23172;BME280;11754;42.664;23.594;2023-04-01T18:56:36;94379.06;;;7.85;77.78
23172;BME280;11754;42.664;23.594;2023-04-01T18:59:08;94390.84;;;7.89;78.05
23172;BME280;11754;42.664;23.594;2023-04-01T19:04:15;94398.72;;;7.89;77.79
23172;BME280;11754;42.664;23.594;2023-04-01T19:06:48;94394.19;;;7.83;77.90
23172;BME280;11754;42.664;23.594;2023-04-01T19:14:52;94401.81;;;8.16;78.06
23172;BME280;11754;42.664;23.594;2023-04-01T19:23:00;94414.69;;;8.63;76.52
23172;BME280;11754;42.664;23.594;2023-04-01T19:26:04;94415.69;;;8.77;75.90
23172;BME280;11754;42.664;23.594;2023-04-01T19:28:43;94429.47;;;8.79;76.39
23172;BME280;11754;42.664;23.594;2023-04-01T19:31:49;94423.13;;;8.88;75.23
23172;BME280;11754;42.664;23.594;2023-04-01T19:37:06;94437.44;;;9.01;74.72
23172;BME280;11754;42.664;23.594;2023-04-01T19:46:12;94435.34;;;9.26;73.16
23172;BME280;11754;42.664;23.594;2023-04-01T19:49:01;94436.16;;;9.26;72.21
23172;BME280;11754;42.664;23.594;2023-04-01T19:54:25;94433.03;;;9.16;72.73
23172;BME280;11754;42.664;23.594;2023-04-01T20:02:58;94438.00;;;8.81;73.97
23172;BME280;11754;42.664;23.594;2023-04-01T20:08:11;94443.25;;;8.81;75.05
23172;BME280;11754;42.664;23.594;2023-04-01T20:10:52;94438.00;;;8.81;74.86
23172;BME280;11754;42.664;23.594;2023-04-01T20:15:58;94444.97;;;8.74;74.46
23172;BME280;11754;42.664;23.594;2023-04-01T20:21:06;94448.66;;;8.65;74.61
23172;BME280;11754;42.664;23.594;2023-04-01T20:23:45;94446.94;;;8.57;74.91
23172;BME280;11754;42.664;23.594;2023-04-01T20:26:14;94448.13;;;8.55;75.11
23172;BME280;11754;42.664;23.594;2023-04-01T20:28:56;94459.34;;;8.49;75.52
23172;BME280;11754;42.664;23.594;2023-04-01T20:37:57;94464.41;;;8.50;75.33
23172;BME280;11754;42.664;23.594;2023-04-01T20:46:22;94489.53;;;8.53;76.30
23172;BME280;11754;42.664;23.594;2023-04-01T20:51:43;94478.94;;;8.61;76.35
23172;BME280;11754;42.664;23.594;2023-04-01T20:59:51;94483.94;;;8.71;75.89
23172;BME280;11754;42.664;23.594;2023-04-01T21:07:49;94486.38;;;8.72;75.42
23172;BME280;11754;42.664;23.594;2023-04-01T21:18:59;94491.56;;;8.65;74.58
23172;BME280;11754;42.664;23.594;2023-04-01T21:38:52;94493.03;;;8.83;73.26
23172;BME280;11754;42.664;23.594;2023-04-01T21:41:27;94489.03;;;8.87;73.25
23172;BME280;11754;42.664;23.594;2023-04-01T21:53:19;94480.59;;;8.62;72.04
23172;BME280;11754;42.664;23.594;2023-04-01T21:58:29;94484.31;;;8.22;73.43
23172;BME280;11754;42.664;23.594;2023-04-01T22:09:25;94498.47;;;7.89;74.63
23172;BME280;11754;42.664;23.594;2023-04-01T22:12:03;94499.34;;;7.90;74.74
23172;BME280;11754;42.664;23.594;2023-04-01T22:15:14;94502.31;;;7.87;74.91
23172;BME280;11754;42.664;23.594;2023-04-01T22:17:58;94503.75;;;7.89;74.80
23172;BME280;11754;42.664;23.594;2023-04-01T22:20:40;94503.09;;;7.87;74.58
23172;BME280;11754;42.664;23.594;2023-04-01T22:23:38;94493.09;;;7.91;74.65
23172;BME280;11754;42.664;23.594;2023-04-01T22:26:22;94498.69;;;7.88;74.62
23172;BME280;11754;42.664;23.594;2023-04-01T22:29:03;94493.63;;;7.86;74.73
23172;BME280;11754;42.664;23.594;2023-04-01T22:31:47;94489.31;;;7.85;74.50
23172;BME280;11754;42.664;23.594;2023-04-01T22:34:35;94492.00;;;7.77;75.07
23172;BME280;11754;42.664;23.594;2023-04-01T22:40:00;94507.06;;;7.83;74.94
23172;BME280;11754;42.664;23.594;2023-04-01T22:50:32;94511.25;;;7.69;74.10
23172;BME280;11754;42.664;23.594;2023-04-01T22:53:29;94517.66;;;7.67;74.14
23172;BME280;11754;42.664;23.594;2023-04-01T22:56:00;94521.41;;;7.73;74.26
23172;BME280;11754;42.664;23.594;2023-04-01T22:58:46;94528.28;;;7.74;74.03
23172;BME280;11754;42.664;23.594;2023-04-01T23:01:19;94539.94;;;7.71;74.42
23172;BME280;11754;42.664;23.594;2023-04-01T23:03:48;94544.22;;;7.64;73.98
23172;BME280;11754;42.664;23.594;2023-04-01T23:06:30;94548.88;;;7.54;74.23
23172;BME280;11754;42.664;23.594;2023-04-01T23:09:10;94546.59;;;7.42;74.25
23172;BME280;11754;42.664;23.594;2023-04-01T23:11:54;94555.84;;;7.30;75.03
23172;BME280;11754;42.664;23.594;2023-04-01T23:26:07;94536.84;;;7.20;76.37
23172;BME280;11754;42.664;23.594;2023-04-01T23:28:47;94539.44;;;7.28;76.31
23172;BME280;11754;42.664;23.594;2023-04-01T23:33:58;94532.53;;;7.43;75.57
23172;BME280;11754;42.664;23.594;2023-04-01T23:36:25;94550.53;;;7.55;75.23
23172;BME280;11754;42.664;23.594;2023-04-01T23:38:51;94545.91;;;7.57;74.88
23172;BME280;11754;42.664;23.594;2023-04-01T23:41:27;94543.63;;;7.54;74.12
23172;BME280;11754;42.664;23.594;2023-04-01T23:44:04;94540.25;;;7.76;73.70
23172;BME280;11754;42.664;23.594;2023-04-01T23:46:32;94540.75;;;7.71;73.33